sensor_id;sensor_type;location;lat;lon;timestamp;P1;durP1;ratioP1;P2;durP2;ratioP2
8654;SDS011;13500;52.514;13.462;2023-09-19T00:01:04;3.93;;;2.60;;
8654;SDS011;13500;52.514;13.462;2023-09-19T00:03:34;4.93;;;2.60;;
8654;SDS011;13500;52.514;13.462;2023-09-19T00:06:05;4.37;;;2.63;;
8654;SDS011;13500;52.514;13.462;2023-09-19T00:08:34;5.33;;;2.53;;
8654;SDS011;13500;52.514;13.462;2023-09-19T00:11:02;4.30;;;2.57;;
8654;SDS011;13500;52.514;13.462;2023-09-19T00:13:30;8.50;;;2.67;;
8654;SDS011;13500;52.514;13.462;2023-09-19T00:15:58;3.13;;;2.43;;
8654;SDS011;13500;52.514;13.462;2023-09-19T00:18:26;4.93;;;2.67;;
8654;SDS011;13500;52.514;13.462;2023-09-19T00:20:56;5.90;;;2.63;;
8654;SDS011;13500;52.514;13.462;2023-09-19T00:23:26;4.80;;;2.40;;
8654;SDS011;13500;52.514;13.462;2023-09-19T00:25:54;3.27;;;2.20;;
8654;SDS011;13500;52.514;13.462;2023-09-19T00:28:26;3.57;;;2.50;;
8654;SDS011;13500;52.514;13.462;2023-09-19T00:30:54;5.23;;;2.40;;
8654;SDS011;13500;52.514;13.462;2023-09-19T00:33:22;6.47;;;2.73;;
8654;SDS011;13500;52.514;13.462;2023-09-19T00:35:51;4.90;;;2.20;;
8654;SDS011;13500;52.514;13.462;2023-09-19T00:38:20;6.63;;;2.87;;
8654;SDS011;13500;52.514;13.462;2023-09-19T00:40:52;4.23;;;2.40;;
8654;SDS011;13500;52.514;13.462;2023-09-19T00:43:26;6.87;;;2.50;;
8654;SDS011;13500;52.514;13.462;2023-09-19T00:45:55;3.30;;;2.33;;
8654;SDS011;13500;52.514;13.462;2023-09-19T00:48:24;4.03;;;2.50;;
8654;SDS011;13500;52.514;13.462;2023-09-19T00:50:56;5.37;;;2.43;;
8654;SDS011;13500;52.514;13.462;2023-09-19T00:53:25;4.13;;;2.63;;
8654;SDS011;13500;52.514;13.462;2023-09-19T00:55:55;3.90;;;2.50;;
8654;SDS011;13500;52.514;13.462;2023-09-19T00:58:23;3.73;;;2.57;;
8654;SDS011;13500;52.514;13.462;2023-09-19T01:00:51;5.80;;;2.53;;
8654;SDS011;13500;52.514;13.462;2023-09-19T01:03:20;3.20;;;2.27;;
8654;SDS011;13500;52.514;13.462;2023-09-19T01:05:48;3.73;;;2.30;;
8654;SDS011;13500;52.514;13.462;2023-09-19T01:08:17;3.23;;;2.40;;
8654;SDS011;13500;52.514;13.462;2023-09-19T01:10:46;3.97;;;2.40;;
8654;SDS011;13500;52.514;13.462;2023-09-19T01:13:22;3.97;;;2.67;;
8654;SDS011;13500;52.514;13.462;2023-09-19T01:15:58;4.63;;;2.50;;
8654;SDS011;13500;52.514;13.462;2023-09-19T01:18:33;3.53;;;2.40;;
8654;SDS011;13500;52.514;13.462;2023-09-19T01:21:05;4.43;;;2.40;;
8654;SDS011;13500;52.514;13.462;2023-09-19T01:23:39;4.10;;;2.60;;
8654;SDS011;13500;52.514;13.462;2023-09-19T01:26:23;6.43;;;2.50;;
8654;SDS011;13500;52.514;13.462;2023-09-19T01:29:06;6.13;;;2.53;;
8654;SDS011;13500;52.514;13.462;2023-09-19T01:31:47;4.80;;;2.57;;
8654;SDS011;13500;52.514;13.462;2023-09-19T01:34:17;4.70;;;2.30;;
8654;SDS011;13500;52.514;13.462;2023-09-19T01:36:45;5.07;;;2.77;;
8654;SDS011;13500;52.514;13.462;2023-09-19T01:39:13;4.37;;;2.40;;
8654;SDS011;13500;52.514;13.462;2023-09-19T01:41:47;5.10;;;2.50;;
8654;SDS011;13500;52.514;13.462;2023-09-19T01:44:22;6.07;;;2.60;;
8654;SDS011;13500;52.514;13.462;2023-09-19T01:46:54;4.63;;;2.30;;
8654;SDS011;13500;52.514;13.462;2023-09-19T01:49:28;3.00;;;2.10;;
8654;SDS011;13500;52.514;13.462;2023-09-19T01:52:04;3.13;;;2.03;;
8654;SDS011;13500;52.514;13.462;2023-09-19T01:54:36;3.80;;;2.50;;
8654;SDS011;13500;52.514;13.462;2023-09-19T01:57:12;3.67;;;2.50;;
8654;SDS011;13500;52.514;13.462;2023-09-19T01:59:45;5.67;;;2.30;;
8654;SDS011;13500;52.514;13.462;2023-09-19T02:02:26;2.87;;;2.00;;
8654;SDS011;13500;52.514;13.462;2023-09-19T02:04:55;4.07;;;2.20;;
8654;SDS011;13500;52.514;13.462;2023-09-19T02:07:26;5.70;;;2.60;;
8654;SDS011;13500;52.514;13.462;2023-09-19T02:09:55;3.50;;;2.40;;
8654;SDS011;13500;52.514;13.462;2023-09-19T02:12:23;4.30;;;2.50;;
8654;SDS011;13500;52.514;13.462;2023-09-19T02:14:51;4.40;;;2.50;;
8654;SDS011;13500;52.514;13.462;2023-09-19T02:17:19;4.47;;;2.37;;
8654;SDS011;13500;52.514;13.462;2023-09-19T02:19:48;4.07;;;2.50;;
8654;SDS011;13500;52.514;13.462;2023-09-19T02:22:16;4.23;;;2.30;;
8654;SDS011;13500;52.514;13.462;2023-09-19T02:24:44;3.73;;;2.37;;
8654;SDS011;13500;52.514;13.462;2023-09-19T02:27:14;6.97;;;2.70;;
8654;SDS011;13500;52.514;13.462;2023-09-19T02:29:42;4.73;;;2.10;;
8654;SDS011;13500;52.514;13.462;2023-09-19T02:32:10;6.03;;;2.37;;
8654;SDS011;13500;52.514;13.462;2023-09-19T02:34:39;3.37;;;2.30;;
8654;SDS011;13500;52.514;13.462;2023-09-19T02:37:10;4.27;;;2.60;;
8654;SDS011;13500;52.514;13.462;2023-09-19T02:39:40;5.27;;;2.73;;
8654;SDS011;13500;52.514;13.462;2023-09-19T02:42:08;4.50;;;2.70;;
8654;SDS011;13500;52.514;13.462;2023-09-19T02:44:39;4.60;;;2.30;;
8654;SDS011;13500;52.514;13.462;2023-09-19T02:47:07;6.60;;;2.70;;
8654;SDS011;13500;52.514;13.462;2023-09-19T02:49:36;5.17;;;2.20;;
8654;SDS011;13500;52.514;13.462;2023-09-19T02:52:04;6.30;;;2.40;;
8654;SDS011;13500;52.514;13.462;2023-09-19T02:54:35;4.63;;;2.10;;
8654;SDS011;13500;52.514;13.462;2023-09-19T02:57:04;2.73;;;2.20;;
8654;SDS011;13500;52.514;13.462;2023-09-19T02:59:33;3.77;;;2.30;;
8654;SDS011;13500;52.514;13.462;2023-09-19T03:02:04;2.63;;;2.20;;
8654;SDS011;13500;52.514;13.462;2023-09-19T03:04:33;3.67;;;2.07;;
8654;SDS011;13500;52.514;13.462;2023-09-19T03:07:02;4.03;;;2.37;;
8654;SDS011;13500;52.514;13.462;2023-09-19T03:09:30;3.97;;;2.23;;
8654;SDS011;13500;52.514;13.462;2023-09-19T03:12:00;3.23;;;1.97;;
8654;SDS011;13500;52.514;13.462;2023-09-19T03:14:32;2.60;;;1.93;;
8654;SDS011;13500;52.514;13.462;2023-09-19T03:17:02;3.90;;;2.10;;
8654;SDS011;13500;52.514;13.462;2023-09-19T03:19:31;4.87;;;2.20;;
8654;SDS011;13500;52.514;13.462;2023-09-19T03:22:00;3.90;;;2.00;;
8654;SDS011;13500;52.514;13.462;2023-09-19T03:24:43;2.83;;;2.00;;
8654;SDS011;13500;52.514;13.462;2023-09-19T03:27:14;4.87;;;2.10;;
8654;SDS011;13500;52.514;13.462;2023-09-19T03:29:42;3.73;;;1.90;;
8654;SDS011;13500;52.514;13.462;2023-09-19T03:32:11;3.40;;;1.90;;
8654;SDS011;13500;52.514;13.462;2023-09-19T03:34:39;2.10;;;1.60;;
8654;SDS011;13500;52.514;13.462;2023-09-19T03:37:10;3.67;;;2.00;;
8654;SDS011;13500;52.514;13.462;2023-09-19T03:39:38;3.67;;;2.00;;
8654;SDS011;13500;52.514;13.462;2023-09-19T03:42:07;4.73;;;1.90;;
8654;SDS011;13500;52.514;13.462;2023-09-19T03:44:36;3.17;;;2.03;;
8654;SDS011;13500;52.514;13.462;2023-09-19T03:47:05;2.00;;;1.67;;
8654;SDS011;13500;52.514;13.462;2023-09-19T03:49:33;4.23;;;1.90;;
8654;SDS011;13500;52.514;13.462;2023-09-19T03:52:01;4.60;;;1.80;;
8654;SDS011;13500;52.514;13.462;2023-09-19T03:54:30;3.57;;;1.67;;
8654;SDS011;13500;52.514;13.462;2023-09-19T03:56:57;2.80;;;1.43;;
8654;SDS011;13500;52.514;13.462;2023-09-19T03:59:25;2.77;;;1.80;;
8654;SDS011;13500;52.514;13.462;2023-09-19T04:01:57;4.27;;;1.70;;
8654;SDS011;13500;52.514;13.462;2023-09-19T04:04:25;3.60;;;1.73;;
8654;SDS011;13500;52.514;13.462;2023-09-19T04:06:55;3.03;;;1.40;;
8654;SDS011;13500;52.514;13.462;2023-09-19T04:09:24;1.73;;;1.40;;
8654;SDS011;13500;52.514;13.462;2023-09-19T04:11:52;1.77;;;1.60;;
8654;SDS011;13500;52.514;13.462;2023-09-19T04:14:20;2.60;;;1.80;;
8654;SDS011;13500;52.514;13.462;2023-09-19T04:16:48;3.17;;;1.53;;
8654;SDS011;13500;52.514;13.462;2023-09-19T04:19:18;2.77;;;1.80;;
8654;SDS011;13500;52.514;13.462;2023-09-19T04:21:46;6.43;;;1.73;;
8654;SDS011;13500;52.514;13.462;2023-09-19T04:24:14;1.97;;;1.63;;
8654;SDS011;13500;52.514;13.462;2023-09-19T04:26:42;4.97;;;1.73;;
8654;SDS011;13500;52.514;13.462;2023-09-19T04:29:10;2.53;;;1.70;;
8654;SDS011;13500;52.514;13.462;2023-09-19T04:31:39;2.80;;;1.87;;
8654;SDS011;13500;52.514;13.462;2023-09-19T04:34:10;5.17;;;1.80;;
8654;SDS011;13500;52.514;13.462;2023-09-19T04:36:45;3.20;;;1.70;;
8654;SDS011;13500;52.514;13.462;2023-09-19T04:39:13;2.80;;;1.57;;
8654;SDS011;13500;52.514;13.462;2023-09-19T04:41:41;2.40;;;1.83;;
8654;SDS011;13500;52.514;13.462;2023-09-19T04:44:09;2.77;;;1.70;;
8654;SDS011;13500;52.514;13.462;2023-09-19T04:46:37;3.33;;;1.53;;
8654;SDS011;13500;52.514;13.462;2023-09-19T04:49:05;2.10;;;1.53;;
8654;SDS011;13500;52.514;13.462;2023-09-19T04:51:33;2.13;;;1.60;;
8654;SDS011;13500;52.514;13.462;2023-09-19T04:54:04;3.00;;;1.73;;
8654;SDS011;13500;52.514;13.462;2023-09-19T04:56:33;4.43;;;1.90;;
8654;SDS011;13500;52.514;13.462;2023-09-19T04:59:01;2.93;;;1.80;;
8654;SDS011;13500;52.514;13.462;2023-09-19T05:01:29;2.07;;;1.63;;
8654;SDS011;13500;52.514;13.462;2023-09-19T05:03:57;3.03;;;1.60;;
8654;SDS011;13500;52.514;13.462;2023-09-19T05:06:25;2.43;;;1.70;;
8654;SDS011;13500;52.514;13.462;2023-09-19T05:08:54;3.53;;;1.70;;
8654;SDS011;13500;52.514;13.462;2023-09-19T05:11:23;6.27;;;2.10;;
8654;SDS011;13500;52.514;13.462;2023-09-19T05:13:51;5.33;;;2.07;;
8654;SDS011;13500;52.514;13.462;2023-09-19T05:16:20;3.50;;;2.13;;
8654;SDS011;13500;52.514;13.462;2023-09-19T05:18:48;6.63;;;2.17;;
8654;SDS011;13500;52.514;13.462;2023-09-19T05:21:17;2.87;;;1.77;;
8654;SDS011;13500;52.514;13.462;2023-09-19T05:23:45;3.07;;;1.80;;
8654;SDS011;13500;52.514;13.462;2023-09-19T05:26:13;2.77;;;1.77;;
8654;SDS011;13500;52.514;13.462;2023-09-19T05:28:44;5.57;;;1.90;;
8654;SDS011;13500;52.514;13.462;2023-09-19T05:31:14;6.37;;;1.80;;
8654;SDS011;13500;52.514;13.462;2023-09-19T05:33:43;2.27;;;1.90;;
8654;SDS011;13500;52.514;13.462;2023-09-19T05:36:11;3.73;;;1.83;;
8654;SDS011;13500;52.514;13.462;2023-09-19T05:38:39;3.30;;;1.87;;
8654;SDS011;13500;52.514;13.462;2023-09-19T05:41:08;6.10;;;2.13;;
8654;SDS011;13500;52.514;13.462;2023-09-19T05:43:40;3.50;;;2.20;;
8654;SDS011;13500;52.514;13.462;2023-09-19T05:46:10;3.83;;;2.00;;
8654;SDS011;13500;52.514;13.462;2023-09-19T05:48:38;3.93;;;1.87;;
8654;SDS011;13500;52.514;13.462;2023-09-19T05:51:08;2.80;;;2.00;;
8654;SDS011;13500;52.514;13.462;2023-09-19T05:53:36;5.57;;;1.90;;
8654;SDS011;13500;52.514;13.462;2023-09-19T05:56:04;4.77;;;2.07;;
8654;SDS011;13500;52.514;13.462;2023-09-19T05:58:32;5.20;;;1.80;;
8654;SDS011;13500;52.514;13.462;2023-09-19T06:01:00;4.40;;;1.77;;
8654;SDS011;13500;52.514;13.462;2023-09-19T06:03:29;4.80;;;1.97;;
8654;SDS011;13500;52.514;13.462;2023-09-19T06:05:58;3.80;;;2.20;;
8654;SDS011;13500;52.514;13.462;2023-09-19T06:08:26;5.50;;;2.27;;
8654;SDS011;13500;52.514;13.462;2023-09-19T06:10:54;3.13;;;2.13;;
8654;SDS011;13500;52.514;13.462;2023-09-19T06:13:22;4.00;;;2.00;;
8654;SDS011;13500;52.514;13.462;2023-09-19T06:15:53;5.03;;;2.23;;
8654;SDS011;13500;52.514;13.462;2023-09-19T06:18:22;5.30;;;2.10;;
8654;SDS011;13500;52.514;13.462;2023-09-19T06:20:54;3.80;;;2.00;;
8654;SDS011;13500;52.514;13.462;2023-09-19T06:23:22;3.97;;;2.37;;
8654;SDS011;13500;52.514;13.462;2023-09-19T06:25:51;4.43;;;2.33;;
8654;SDS011;13500;52.514;13.462;2023-09-19T06:28:20;5.07;;;2.30;;
8654;SDS011;13500;52.514;13.462;2023-09-19T06:30:50;3.83;;;2.27;;
8654;SDS011;13500;52.514;13.462;2023-09-19T06:33:18;3.70;;;1.90;;
8654;SDS011;13500;52.514;13.462;2023-09-19T06:35:48;6.20;;;2.33;;
8654;SDS011;13500;52.514;13.462;2023-09-19T06:38:20;5.30;;;2.10;;
8654;SDS011;13500;52.514;13.462;2023-09-19T06:40:48;3.63;;;2.00;;
8654;SDS011;13500;52.514;13.462;2023-09-19T06:43:16;5.07;;;2.10;;
8654;SDS011;13500;52.514;13.462;2023-09-19T06:45:45;2.67;;;1.87;;
8654;SDS011;13500;52.514;13.462;2023-09-19T06:48:13;3.77;;;2.40;;
8654;SDS011;13500;52.514;13.462;2023-09-19T06:50:42;4.30;;;1.90;;
8654;SDS011;13500;52.514;13.462;2023-09-19T06:53:11;2.57;;;1.93;;
8654;SDS011;13500;52.514;13.462;2023-09-19T06:55:40;5.23;;;2.43;;
8654;SDS011;13500;52.514;13.462;2023-09-19T06:58:10;4.73;;;2.07;;
8654;SDS011;13500;52.514;13.462;2023-09-19T07:00:38;4.17;;;2.60;;
8654;SDS011;13500;52.514;13.462;2023-09-19T07:03:06;2.67;;;1.97;;
8654;SDS011;13500;52.514;13.462;2023-09-19T07:05:38;5.53;;;2.30;;
8654;SDS011;13500;52.514;13.462;2023-09-19T07:08:08;5.30;;;2.20;;
8654;SDS011;13500;52.514;13.462;2023-09-19T07:10:38;3.97;;;2.27;;
8654;SDS011;13500;52.514;13.462;2023-09-19T07:13:08;4.60;;;2.60;;
8654;SDS011;13500;52.514;13.462;2023-09-19T07:15:37;6.17;;;2.30;;
8654;SDS011;13500;52.514;13.462;2023-09-19T07:18:13;2.90;;;2.10;;
8654;SDS011;13500;52.514;13.462;2023-09-19T07:20:43;6.03;;;2.43;;
8654;SDS011;13500;52.514;13.462;2023-09-19T07:23:15;4.33;;;2.30;;
8654;SDS011;13500;52.514;13.462;2023-09-19T07:25:45;3.77;;;1.83;;
8654;SDS011;13500;52.514;13.462;2023-09-19T07:28:15;4.60;;;2.30;;
8654;SDS011;13500;52.514;13.462;2023-09-19T07:30:43;4.20;;;2.10;;
8654;SDS011;13500;52.514;13.462;2023-09-19T07:33:11;3.53;;;1.87;;
8654;SDS011;13500;52.514;13.462;2023-09-19T07:35:39;5.00;;;2.10;;
8654;SDS011;13500;52.514;13.462;2023-09-19T07:38:07;7.67;;;1.90;;
8654;SDS011;13500;52.514;13.462;2023-09-19T07:40:38;6.47;;;2.57;;
8654;SDS011;13500;52.514;13.462;2023-09-19T07:43:10;4.07;;;2.27;;
8654;SDS011;13500;52.514;13.462;2023-09-19T07:45:38;4.13;;;2.20;;
8654;SDS011;13500;52.514;13.462;2023-09-19T07:48:06;4.17;;;2.40;;
8654;SDS011;13500;52.514;13.462;2023-09-19T07:50:41;4.20;;;2.30;;
8654;SDS011;13500;52.514;13.462;2023-09-19T07:53:10;3.73;;;2.03;;
8654;SDS011;13500;52.514;13.462;2023-09-19T07:55:39;6.37;;;2.60;;
8654;SDS011;13500;52.514;13.462;2023-09-19T07:58:10;6.57;;;2.50;;
8654;SDS011;13500;52.514;13.462;2023-09-19T08:00:40;7.30;;;2.80;;
8654;SDS011;13500;52.514;13.462;2023-09-19T08:03:08;7.87;;;2.60;;
8654;SDS011;13500;52.514;13.462;2023-09-19T08:05:43;4.47;;;2.40;;
8654;SDS011;13500;52.514;13.462;2023-09-19T08:08:12;6.77;;;2.40;;
8654;SDS011;13500;52.514;13.462;2023-09-19T08:10:42;3.67;;;2.60;;
8654;SDS011;13500;52.514;13.462;2023-09-19T08:13:14;5.37;;;2.40;;
8654;SDS011;13500;52.514;13.462;2023-09-19T08:15:44;7.07;;;2.53;;
8654;SDS011;13500;52.514;13.462;2023-09-19T08:18:12;3.80;;;2.20;;
8654;SDS011;13500;52.514;13.462;2023-09-19T08:20:40;5.63;;;2.30;;
8654;SDS011;13500;52.514;13.462;2023-09-19T08:23:08;6.70;;;2.40;;
8654;SDS011;13500;52.514;13.462;2023-09-19T08:25:36;6.10;;;2.40;;
8654;SDS011;13500;52.514;13.462;2023-09-19T08:28:06;5.57;;;2.30;;
8654;SDS011;13500;52.514;13.462;2023-09-19T08:30:39;4.30;;;2.27;;
8654;SDS011;13500;52.514;13.462;2023-09-19T08:33:07;4.77;;;2.20;;
8654;SDS011;13500;52.514;13.462;2023-09-19T08:35:36;5.17;;;2.27;;
8654;SDS011;13500;52.514;13.462;2023-09-19T08:38:06;7.23;;;2.90;;
8654;SDS011;13500;52.514;13.462;2023-09-19T08:40:36;5.93;;;2.53;;
8654;SDS011;13500;52.514;13.462;2023-09-19T08:43:06;5.07;;;2.57;;
8654;SDS011;13500;52.514;13.462;2023-09-19T08:45:35;8.63;;;2.50;;
8654;SDS011;13500;52.514;13.462;2023-09-19T08:48:09;9.23;;;2.60;;
8654;SDS011;13500;52.514;13.462;2023-09-19T08:50:47;6.90;;;2.57;;
8654;SDS011;13500;52.514;13.462;2023-09-19T08:53:20;4.53;;;2.50;;
8654;SDS011;13500;52.514;13.462;2023-09-19T08:55:56;5.17;;;2.57;;
8654;SDS011;13500;52.514;13.462;2023-09-19T08:58:25;5.33;;;2.43;;
8654;SDS011;13500;52.514;13.462;2023-09-19T09:00:56;6.20;;;2.67;;
8654;SDS011;13500;52.514;13.462;2023-09-19T09:03:32;5.50;;;2.50;;
8654;SDS011;13500;52.514;13.462;2023-09-19T09:06:01;4.80;;;2.50;;
8654;SDS011;13500;52.514;13.462;2023-09-19T09:08:30;7.10;;;2.70;;
8654;SDS011;13500;52.514;13.462;2023-09-19T09:10:58;6.77;;;2.60;;
8654;SDS011;13500;52.514;13.462;2023-09-19T09:13:27;5.37;;;2.60;;
8654;SDS011;13500;52.514;13.462;2023-09-19T09:15:55;3.20;;;2.33;;
8654;SDS011;13500;52.514;13.462;2023-09-19T09:18:23;4.07;;;2.40;;
8654;SDS011;13500;52.514;13.462;2023-09-19T09:20:52;6.67;;;2.50;;
8654;SDS011;13500;52.514;13.462;2023-09-19T09:23:22;6.97;;;2.60;;
8654;SDS011;13500;52.514;13.462;2023-09-19T09:25:52;10.43;;;3.47;;
8654;SDS011;13500;52.514;13.462;2023-09-19T09:28:24;4.23;;;2.57;;
8654;SDS011;13500;52.514;13.462;2023-09-19T09:30:57;5.60;;;2.40;;
8654;SDS011;13500;52.514;13.462;2023-09-19T09:33:25;3.77;;;2.43;;
8654;SDS011;13500;52.514;13.462;2023-09-19T09:35:57;5.07;;;2.80;;
8654;SDS011;13500;52.514;13.462;2023-09-19T09:38:27;5.40;;;2.77;;
8654;SDS011;13500;52.514;13.462;2023-09-19T09:40:59;6.43;;;2.70;;
8654;SDS011;13500;52.514;13.462;2023-09-19T10:15:59;6.27;;;2.67;;
8654;SDS011;13500;52.514;13.462;2023-09-19T10:18:32;6.10;;;2.90;;
8654;SDS011;13500;52.514;13.462;2023-09-19T10:21:06;6.17;;;3.10;;
8654;SDS011;13500;52.514;13.462;2023-09-19T10:23:36;6.20;;;3.13;;
8654;SDS011;13500;52.514;13.462;2023-09-19T10:26:06;5.20;;;2.80;;
8654;SDS011;13500;52.514;13.462;2023-09-19T10:28:35;5.87;;;3.13;;
8654;SDS011;13500;52.514;13.462;2023-09-19T10:31:07;5.30;;;2.77;;
8654;SDS011;13500;52.514;13.462;2023-09-19T10:33:40;5.03;;;2.93;;
8654;SDS011;13500;52.514;13.462;2023-09-19T10:36:09;5.33;;;2.90;;
8654;SDS011;13500;52.514;13.462;2023-09-19T10:38:38;11.30;;;3.20;;
8654;SDS011;13500;52.514;13.462;2023-09-19T10:41:08;5.47;;;3.03;;
8654;SDS011;13500;52.514;13.462;2023-09-19T10:43:36;4.43;;;2.80;;
8654;SDS011;13500;52.514;13.462;2023-09-19T10:46:07;5.97;;;2.70;;
8654;SDS011;13500;52.514;13.462;2023-09-19T10:48:38;6.47;;;2.53;;
8654;SDS011;13500;52.514;13.462;2023-09-19T10:51:09;7.60;;;2.77;;
8654;SDS011;13500;52.514;13.462;2023-09-19T10:53:43;4.33;;;3.03;;
8654;SDS011;13500;52.514;13.462;2023-09-19T10:56:18;6.47;;;3.30;;
8654;SDS011;13500;52.514;13.462;2023-09-19T10:59:04;5.67;;;2.80;;
8654;SDS011;13500;52.514;13.462;2023-09-19T11:01:43;5.60;;;2.93;;
8654;SDS011;13500;52.514;13.462;2023-09-19T11:04:20;6.93;;;3.10;;
8654;SDS011;13500;52.514;13.462;2023-09-19T11:06:59;5.63;;;3.00;;
8654;SDS011;13500;52.514;13.462;2023-09-19T11:09:43;4.77;;;2.77;;
8654;SDS011;13500;52.514;13.462;2023-09-19T11:27:11;5.63;;;3.00;;
8654;SDS011;13500;52.514;13.462;2023-09-19T11:29:41;7.07;;;3.27;;
8654;SDS011;13500;52.514;13.462;2023-09-19T11:32:09;7.37;;;2.80;;
8654;SDS011;13500;52.514;13.462;2023-09-19T11:34:38;4.37;;;2.80;;
8654;SDS011;13500;52.514;13.462;2023-09-19T11:40:46;7.23;;;2.77;;
8654;SDS011;13500;52.514;13.462;2023-09-19T11:43:29;6.13;;;3.00;;
8654;SDS011;13500;52.514;13.462;2023-09-19T11:46:05;5.90;;;2.77;;
8654;SDS011;13500;52.514;13.462;2023-09-19T11:48:43;8.50;;;2.93;;
8654;SDS011;13500;52.514;13.462;2023-09-19T11:51:15;4.40;;;2.20;;
8654;SDS011;13500;52.514;13.462;2023-09-19T11:53:49;5.07;;;2.50;;
8654;SDS011;13500;52.514;13.462;2023-09-19T11:56:20;6.50;;;2.73;;
8654;SDS011;13500;52.514;13.462;2023-09-19T11:58:51;4.40;;;2.73;;
8654;SDS011;13500;52.514;13.462;2023-09-19T12:01:22;5.57;;;2.77;;
8654;SDS011;13500;52.514;13.462;2023-09-19T12:03:52;7.13;;;2.90;;
8654;SDS011;13500;52.514;13.462;2023-09-19T12:06:24;6.90;;;2.43;;
8654;SDS011;13500;52.514;13.462;2023-09-19T12:08:53;5.20;;;2.93;;
8654;SDS011;13500;52.514;13.462;2023-09-19T12:11:23;5.33;;;2.50;;
8654;SDS011;13500;52.514;13.462;2023-09-19T12:13:51;4.53;;;2.40;;
8654;SDS011;13500;52.514;13.462;2023-09-19T12:16:20;6.07;;;2.60;;
8654;SDS011;13500;52.514;13.462;2023-09-19T12:18:49;8.27;;;2.70;;
8654;SDS011;13500;52.514;13.462;2023-09-19T12:21:21;5.27;;;2.20;;
8654;SDS011;13500;52.514;13.462;2023-09-19T12:23:56;5.97;;;2.83;;
8654;SDS011;13500;52.514;13.462;2023-09-19T12:26:40;4.27;;;2.60;;
8654;SDS011;13500;52.514;13.462;2023-09-19T12:29:13;3.97;;;2.10;;
8654;SDS011;13500;52.514;13.462;2023-09-19T12:31:48;5.33;;;2.40;;
8654;SDS011;13500;52.514;13.462;2023-09-19T12:34:22;7.27;;;2.37;;
8654;SDS011;13500;52.514;13.462;2023-09-19T12:37:03;5.60;;;2.30;;
8654;SDS011;13500;52.514;13.462;2023-09-19T12:39:41;3.97;;;1.90;;
8654;SDS011;13500;52.514;13.462;2023-09-19T12:42:12;4.27;;;2.20;;
8654;SDS011;13500;52.514;13.462;2023-09-19T12:44:41;5.27;;;1.90;;
8654;SDS011;13500;52.514;13.462;2023-09-19T12:47:11;4.60;;;2.20;;
8654;SDS011;13500;52.514;13.462;2023-09-19T12:52:44;7.27;;;2.20;;
8654;SDS011;13500;52.514;13.462;2023-09-19T12:55:21;5.33;;;1.87;;
8654;SDS011;13500;52.514;13.462;2023-09-19T12:58:01;6.30;;;2.30;;
8654;SDS011;13500;52.514;13.462;2023-09-19T13:00:36;4.37;;;2.00;;
8654;SDS011;13500;52.514;13.462;2023-09-19T13:03:15;4.30;;;2.20;;
8654;SDS011;13500;52.514;13.462;2023-09-19T13:05:49;4.40;;;2.00;;
8654;SDS011;13500;52.514;13.462;2023-09-19T13:08:24;5.53;;;2.03;;
8654;SDS011;13500;52.514;13.462;2023-09-19T13:11:07;3.23;;;2.10;;
8654;SDS011;13500;52.514;13.462;2023-09-19T13:13:41;8.50;;;2.73;;
8654;SDS011;13500;52.514;13.462;2023-09-19T13:16:15;8.93;;;2.47;;
8654;SDS011;13500;52.514;13.462;2023-09-19T13:18:49;5.90;;;2.63;;
8654;SDS011;13500;52.514;13.462;2023-09-19T13:21:31;6.53;;;2.60;;
8654;SDS011;13500;52.514;13.462;2023-09-19T13:24:19;4.00;;;2.20;;
8654;SDS011;13500;52.514;13.462;2023-09-19T13:26:49;4.80;;;2.10;;
8654;SDS011;13500;52.514;13.462;2023-09-19T13:29:19;4.20;;;2.23;;
8654;SDS011;13500;52.514;13.462;2023-09-19T13:31:47;2.93;;;2.10;;
8654;SDS011;13500;52.514;13.462;2023-09-19T13:34:15;8.50;;;2.30;;
8654;SDS011;13500;52.514;13.462;2023-09-19T13:36:44;4.43;;;2.10;;
8654;SDS011;13500;52.514;13.462;2023-09-19T13:39:13;4.33;;;2.23;;
8654;SDS011;13500;52.514;13.462;2023-09-19T13:41:43;4.70;;;1.80;;
8654;SDS011;13500;52.514;13.462;2023-09-19T13:44:13;5.30;;;2.40;;
8654;SDS011;13500;52.514;13.462;2023-09-19T13:46:42;7.17;;;2.00;;
8654;SDS011;13500;52.514;13.462;2023-09-19T13:49:12;5.13;;;2.27;;
8654;SDS011;13500;52.514;13.462;2023-09-19T13:51:41;4.47;;;2.17;;
8654;SDS011;13500;52.514;13.462;2023-09-19T13:54:11;6.37;;;2.30;;
8654;SDS011;13500;52.514;13.462;2023-09-19T13:56:40;4.53;;;1.97;;
8654;SDS011;13500;52.514;13.462;2023-09-19T13:59:08;4.70;;;2.10;;
8654;SDS011;13500;52.514;13.462;2023-09-19T14:01:36;4.70;;;2.00;;
8654;SDS011;13500;52.514;13.462;2023-09-19T14:04:07;4.70;;;2.20;;
8654;SDS011;13500;52.514;13.462;2023-09-19T14:06:36;6.13;;;2.43;;
8654;SDS011;13500;52.514;13.462;2023-09-19T14:09:04;4.63;;;2.00;;
8654;SDS011;13500;52.514;13.462;2023-09-19T14:11:34;5.57;;;2.60;;
8654;SDS011;13500;52.514;13.462;2023-09-19T14:14:02;4.63;;;2.43;;
8654;SDS011;13500;52.514;13.462;2023-09-19T14:16:31;5.87;;;2.50;;
8654;SDS011;13500;52.514;13.462;2023-09-19T14:19:00;4.20;;;2.07;;
8654;SDS011;13500;52.514;13.462;2023-09-19T14:21:29;4.00;;;2.10;;
8654;SDS011;13500;52.514;13.462;2023-09-19T14:23:57;3.97;;;2.30;;
8654;SDS011;13500;52.514;13.462;2023-09-19T14:26:25;5.30;;;2.37;;
8654;SDS011;13500;52.514;13.462;2023-09-19T14:28:53;3.50;;;2.23;;
8654;SDS011;13500;52.514;13.462;2023-09-19T14:31:21;6.63;;;2.40;;
8654;SDS011;13500;52.514;13.462;2023-09-19T14:33:52;5.10;;;2.10;;
8654;SDS011;13500;52.514;13.462;2023-09-19T14:36:21;5.33;;;2.00;;
8654;SDS011;13500;52.514;13.462;2023-09-19T14:38:53;3.17;;;1.97;;
8654;SDS011;13500;52.514;13.462;2023-09-19T14:41:22;3.47;;;2.30;;
8654;SDS011;13500;52.514;13.462;2023-09-19T14:43:51;4.47;;;2.60;;
8654;SDS011;13500;52.514;13.462;2023-09-19T14:46:21;3.97;;;2.10;;
8654;SDS011;13500;52.514;13.462;2023-09-19T14:48:50;4.60;;;2.13;;
8654;SDS011;13500;52.514;13.462;2023-09-19T14:51:19;5.10;;;2.30;;
8654;SDS011;13500;52.514;13.462;2023-09-19T14:53:47;5.70;;;2.37;;
8654;SDS011;13500;52.514;13.462;2023-09-19T14:56:17;3.90;;;2.30;;
8654;SDS011;13500;52.514;13.462;2023-09-19T14:58:46;5.17;;;2.33;;
8654;SDS011;13500;52.514;13.462;2023-09-19T15:01:14;5.03;;;2.73;;
8654;SDS011;13500;52.514;13.462;2023-09-19T15:03:42;5.53;;;2.50;;
8654;SDS011;13500;52.514;13.462;2023-09-19T15:06:12;5.80;;;2.90;;
8654;SDS011;13500;52.514;13.462;2023-09-19T15:08:41;3.93;;;2.30;;
8654;SDS011;13500;52.514;13.462;2023-09-19T15:11:12;6.57;;;2.80;;
8654;SDS011;13500;52.514;13.462;2023-09-19T15:13:44;4.53;;;2.20;;
8654;SDS011;13500;52.514;13.462;2023-09-19T15:16:13;4.10;;;2.53;;
8654;SDS011;13500;52.514;13.462;2023-09-19T15:18:42;2.47;;;1.93;;
8654;SDS011;13500;52.514;13.462;2023-09-19T15:21:14;5.90;;;2.63;;
8654;SDS011;13500;52.514;13.462;2023-09-19T15:23:42;5.00;;;2.40;;
8654;SDS011;13500;52.514;13.462;2023-09-19T15:26:14;4.70;;;2.73;;
8654;SDS011;13500;52.514;13.462;2023-09-19T15:28:48;8.13;;;2.67;;
8654;SDS011;13500;52.514;13.462;2023-09-19T15:31:17;4.53;;;2.60;;
8654;SDS011;13500;52.514;13.462;2023-09-19T15:33:45;4.27;;;2.50;;
8654;SDS011;13500;52.514;13.462;2023-09-19T15:36:13;3.63;;;2.60;;
8654;SDS011;13500;52.514;13.462;2023-09-19T15:38:55;7.30;;;2.90;;
8654;SDS011;13500;52.514;13.462;2023-09-19T15:41:24;6.67;;;2.93;;
8654;SDS011;13500;52.514;13.462;2023-09-19T15:43:54;5.03;;;2.10;;
8654;SDS011;13500;52.514;13.462;2023-09-19T15:46:24;3.87;;;2.83;;
8654;SDS011;13500;52.514;13.462;2023-09-19T15:48:53;4.27;;;2.50;;
8654;SDS011;13500;52.514;13.462;2023-09-19T15:51:21;5.63;;;2.60;;
8654;SDS011;13500;52.514;13.462;2023-09-19T15:53:49;5.73;;;2.60;;
8654;SDS011;13500;52.514;13.462;2023-09-19T15:56:19;5.23;;;2.73;;
8654;SDS011;13500;52.514;13.462;2023-09-19T15:58:49;4.03;;;2.50;;
8654;SDS011;13500;52.514;13.462;2023-09-19T16:01:20;6.30;;;2.30;;